Time;durP1;ratioP1;P1;durP2;ratioP2;P2;SDS_P1;SDS_P2;PMS_P1;PMS_P2;Temp;Humidity;BMP_temperature;BMP_pressure;BME280_temperature;BME280_humidity;BME280_pressure;Samples;Min_cycle;Max_cycle;Signal;HPM_P1;HPM_P2
2021/12/29 00:01:46;;;;;;;4.22;2.70;;;9.10;99.90;;;;;;6738942;88;20255;-77
2021/12/29 00:11:47;;;;;;;4.85;2.90;;;9.10;99.90;;;;;;6740616;88;20767;-77
2021/12/29 00:21:47;;;;;;;4.55;3.10;;;9.10;99.90;;;;;;6746640;88;20218;-77
2021/12/29 00:31:48;;;;;;;6.60;3.30;;;9.20;99.90;;;;;;6743356;88;20255;-76
2021/12/29 00:41:48;;;;;;;4.05;2.35;;;9.20;99.90;;;;;;6742961;88;20348;-76
2021/12/29 00:51:49;;;;;;;3.85;1.90;;;9.30;99.90;;;;;;6751328;88;20610;-77
2021/12/29 01:01:51;;;;;;;2.62;1.77;;;9.20;99.90;;;;;;6741476;88;20216;-76
2021/12/29 01:11:55;;;;;;;5.10;2.30;;;9.20;99.90;;;;;;6740341;88;20625;-77
2021/12/29 01:21:59;;;;;;;3.10;2.20;;;9.30;99.90;;;;;;6743743;88;20739;-77
2021/12/29 01:32:00;;;;;;;2.72;1.70;;;9.30;99.90;;;;;;6758710;88;20306;-77
2021/12/29 01:42:00;;;;;;;2.42;1.37;;;9.30;99.90;;;;;;6738811;88;20197;-76
2021/12/29 01:52:09;;;;;;;2.97;1.45;;;9.20;99.90;;;;;;6738223;88;20271;-77
2021/12/29 02:02:14;;;;;;;3.37;1.75;;;9.20;99.90;;;;;;6747867;88;20736;-77
2021/12/29 02:12:16;;;;;;;3.97;1.95;;;9.20;99.90;;;;;;6752148;88;20271;-76
2021/12/29 02:22:39;;;;;;;4.10;2.40;;;9.30;99.90;;;;;;6743184;88;20635;-76
2021/12/29 02:32:41;;;;;;;4.43;2.33;;;9.40;99.90;;;;;;6740884;88;20192;-76
2021/12/29 02:42:42;;;;;;;4.35;2.10;;;9.40;99.90;;;;;;6745796;88;20237;-77
2021/12/29 02:52:45;;;;;;;3.60;1.95;;;9.40;99.90;;;;;;6755320;88;20312;-76
2021/12/29 03:02:46;;;;;;;3.28;1.85;;;9.40;99.90;;;;;;6719995;88;20609;-76
2021/12/29 03:12:46;;;;;;;4.62;1.80;;;9.40;99.90;;;;;;6735529;88;20265;-78
2021/12/29 03:22:47;;;;;;;5.90;2.50;;;9.40;99.90;;;;;;6747459;88;20185;-78
2021/12/29 03:33:02;;;;;;;5.32;2.45;;;9.30;99.90;;;;;;6746203;88;20324;-77
2021/12/29 03:43:04;;;;;;;3.80;2.30;;;9.10;99.90;;;;;;6739760;88;20188;-77
2021/12/29 03:53:05;;;;;;;3.72;1.80;;;9.10;99.90;;;;;;6749911;88;20210;-77
2021/12/29 04:03:06;;;;;;;5.70;2.53;;;9.10;99.90;;;;;;6744048;88;20345;-78
2021/12/29 04:13:07;;;;;;;6.72;2.60;;;9.20;99.90;;;;;;6758384;88;20217;-76
2021/12/29 04:23:09;;;;;;;5.07;3.37;;;9.20;99.90;;;;;;6754228;87;20192;-77
2021/12/29 04:33:10;;;;;;;3.45;2.10;;;9.10;99.90;;;;;;6741896;88;21099;-77
2021/12/29 04:43:10;;;;;;;4.47;2.17;;;9.10;99.90;;;;;;6744655;88;20199;-77
2021/12/29 04:53:11;;;;;;;4.80;2.12;;;9.10;99.90;;;;;;6749142;87;20645;-76
2021/12/29 05:03:11;;;;;;;2.50;1.90;;;9.10;99.90;;;;;;6750386;88;20192;-77
2021/12/29 05:13:13;;;;;;;3.53;2.30;;;9.20;99.90;;;;;;6745590;88;20200;-76
2021/12/29 05:23:13;;;;;;;7.78;2.50;;;9.20;99.90;;;;;;6756170;88;20802;-77
2021/12/29 05:33:15;;;;;;;5.18;2.87;;;9.10;99.90;;;;;;6758922;88;20190;-78
2021/12/29 05:43:15;;;;;;;6.05;2.80;;;9.20;99.90;;;;;;6738492;88;20405;-77
2021/12/29 05:53:16;;;;;;;5.15;2.65;;;9.10;99.90;;;;;;6748728;88;20252;-77
2021/12/29 06:03:19;;;;;;;6.82;3.50;;;9.20;99.90;;;;;;6736054;88;20182;-77
2021/12/29 06:13:19;;;;;;;5.40;3.62;;;9.00;99.90;;;;;;6741048;88;20902;-77
2021/12/29 06:23:20;;;;;;;6.55;3.83;;;9.00;99.90;;;;;;6748359;88;20255;-77
2021/12/29 06:33:21;;;;;;;7.10;4.00;;;9.20;99.90;;;;;;6754272;87;20295;-77
2021/12/29 06:43:21;;;;;;;6.87;3.40;;;9.10;99.90;;;;;;6744852;88;20198;-77
2021/12/29 06:53:22;;;;;;;5.10;2.95;;;9.10;99.90;;;;;;6751988;88;20181;-76
2021/12/29 07:03:23;;;;;;;5.12;3.10;;;9.20;99.90;;;;;;6749521;88;20314;-76
2021/12/29 07:13:23;;;;;;;5.18;2.80;;;9.20;99.90;;;;;;6747871;87;20181;-77
2021/12/29 07:23:24;;;;;;;3.70;2.42;;;9.20;99.90;;;;;;6747701;88;20917;-77
2021/12/29 07:33:25;;;;;;;3.97;2.08;;;9.30;99.90;;;;;;6747694;88;20215;-76
2021/12/29 07:43:25;;;;;;;4.45;2.00;;;9.30;99.90;;;;;;6750091;88;20564;-77
2021/12/29 07:53:26;;;;;;;3.63;1.90;;;9.30;99.90;;;;;;6744296;88;20184;-77
2021/12/29 08:03:27;;;;;;;4.00;1.77;;;9.30;99.90;;;;;;6742589;88;20588;-76
2021/12/29 08:13:27;;;;;;;4.55;2.60;;;9.50;99.90;;;;;;6743230;88;20494;-76
2021/12/29 08:23:28;;;;;;;5.35;2.55;;;9.40;99.90;;;;;;6738719;88;20202;-76
2021/12/29 08:33:29;;;;;;;3.60;2.33;;;9.50;99.90;;;;;;6746100;88;20211;-76
2021/12/29 08:43:31;;;;;;;4.28;2.20;;;9.50;99.90;;;;;;6745817;88;20205;-77
2021/12/29 08:53:32;;;;;;;4.37;1.80;;;9.60;99.90;;;;;;6746227;87;20185;-76
2021/12/29 09:03:33;;;;;;;4.23;2.30;;;9.60;99.90;;;;;;6746071;88;20213;-76
2021/12/29 09:13:33;;;;;;;4.90;2.40;;;9.70;99.90;;;;;;6728651;76;20511;-77
2021/12/29 09:23:34;;;;;;;4.25;2.37;;;9.60;99.90;;;;;;6706410;88;20252;-77
2021/12/29 09:33:35;;;;;;;7.12;2.40;;;9.70;99.90;;;;;;6713124;88;20206;-77
2021/12/29 09:43:37;;;;;;;6.37;2.80;;;9.70;99.90;;;;;;6714101;88;20200;-74
2021/12/29 09:53:39;;;;;;;6.30;2.53;;;9.60;99.90;;;;;;6709789;88;20660;-75
2021/12/29 10:03:42;;;;;;;5.28;2.50;;;9.60;99.90;;;;;;6711617;88;20652;-76
2021/12/29 10:13:45;;;;;;;8.50;2.20;;;9.80;99.90;;;;;;6707123;88;20732;-76
2021/12/29 10:23:51;;;;;;;3.08;1.67;;;9.90;99.90;;;;;;6708502;88;20786;-74
2021/12/29 10:33:55;;;;;;;3.03;1.80;;;10.00;99.90;;;;;;6708961;88;20181;-76
2021/12/29 10:43:57;;;;;;;6.57;1.80;;;10.20;99.90;;;;;;6708041;88;20249;-77
2021/12/29 10:54:15;;;;;;;6.10;1.77;;;10.60;99.90;;;;;;6705748;88;20633;-75
2021/12/29 11:04:16;;;;;;;3.25;1.40;;;11.80;99.90;;;;;;6701831;88;20370;-76
2021/12/29 11:14:28;;;;;;;3.53;1.52;;;13.00;99.90;;;;;;6709137;88;20208;-76
2021/12/29 11:24:28;;;;;;;2.65;1.50;;;13.50;99.90;;;;;;6706219;88;20220;-77
2021/12/29 11:34:30;;;;;;;3.72;1.73;;;13.20;99.90;;;;;;6711010;88;20231;-76
2021/12/29 11:44:31;;;;;;;5.30;1.52;;;12.40;99.90;;;;;;6717974;88;20270;-77
2021/12/29 11:54:42;;;;;;;3.28;1.40;;;12.70;99.90;;;;;;6716128;88;20231;-77
2021/12/29 12:04:57;;;;;;;2.85;1.08;;;12.30;99.90;;;;;;6717631;88;20763;-76
2021/12/29 12:14:58;;;;;;;2.90;1.20;;;11.70;99.90;;;;;;6715340;88;20194;-77
2021/12/29 12:25:01;;;;;;;4.12;1.08;;;11.60;99.90;;;;;;6709505;88;20334;-76
2021/12/29 12:35:05;;;;;;;2.83;0.82;;;11.40;99.90;;;;;;6713638;88;20217;-76
2021/12/29 12:45:21;;;;;;;2.67;0.70;;;11.50;99.90;;;;;;6718067;88;20369;-76
2021/12/29 12:55:22;;;;;;;2.85;0.98;;;11.10;99.90;;;;;;6717344;88;20245;-76
2021/12/29 13:05:33;;;;;;;4.07;0.73;;;11.00;99.90;;;;;;6714629;88;20179;-76
2021/12/29 13:15:34;;;;;;;2.80;0.82;;;11.00;99.90;;;;;;6707706;88;20182;-76
2021/12/29 13:25:39;;;;;;;2.05;0.55;;;11.00;99.90;;;;;;6714080;88;20669;-76
2021/12/29 13:35:43;;;;;;;2.53;0.70;;;10.80;99.90;;;;;;6719891;88;20996;-75
2021/12/29 13:45:47;;;;;;;1.20;0.52;;;10.60;99.90;;;;;;6724078;88;20190;-76
2021/12/29 13:55:48;;;;;;;3.40;0.80;;;10.50;99.90;;;;;;6719939;88;20189;-77
2021/12/29 14:05:48;;;;;;;1.95;0.65;;;10.40;99.90;;;;;;6721645;88;20317;-77
2021/12/29 14:15:59;;;;;;;2.45;0.73;;;10.40;99.90;;;;;;6716912;88;20671;-77
2021/12/29 14:26:12;;;;;;;2.62;0.98;;;10.30;99.90;;;;;;6719663;88;20256;-76
2021/12/29 14:36:15;;;;;;;5.00;1.40;;;10.20;99.90;;;;;;6718355;88;20311;-76
2021/12/29 14:46:16;;;;;;;7.50;1.50;;;9.90;99.90;;;;;;6717171;88;20738;-76
2021/12/29 14:56:20;;;;;;;5.13;1.80;;;9.70;99.90;;;;;;6718018;88;20228;-77
2021/12/29 15:06:41;;;;;;;6.97;2.60;;;9.50;99.90;;;;;;6715235;88;20568;-81
2021/12/29 15:17:03;;;;;;;6.07;2.47;;;9.40;99.90;;;;;;6643757;88;20794;-73
2021/12/29 15:27:04;;;;;;;8.00;2.83;;;9.30;99.90;;;;;;6636267;88;20217;-72
2021/12/29 15:37:05;;;;;;;6.18;3.22;;;9.30;99.90;;;;;;6622070;88;20662;-74
2021/12/29 15:47:05;;;;;;;9.45;3.47;;;9.30;99.90;;;;;;6625311;88;20261;-74
2021/12/29 15:57:08;;;;;;;9.25;4.10;;;9.20;99.90;;;;;;6638133;88;20710;-75
2021/12/29 16:07:10;;;;;;;8.25;3.90;;;9.10;99.90;;;;;;6644193;88;20209;-75
2021/12/29 16:17:11;;;;;;;7.47;3.60;;;9.10;99.90;;;;;;6625918;88;20370;-75
2021/12/29 16:27:11;;;;;;;5.90;2.85;;;9.20;99.90;;;;;;6627116;88;20292;-75
2021/12/29 16:37:12;;;;;;;3.30;2.10;;;9.20;99.90;;;;;;6632222;88;20405;-75
2021/12/29 16:47:13;;;;;;;3.60;1.55;;;9.30;99.90;;;;;;6623175;88;20659;-75
2021/12/29 16:57:14;;;;;;;3.65;1.50;;;9.40;99.90;;;;;;6629453;88;20232;-75
2021/12/29 17:07:15;;;;;;;3.95;1.50;;;9.50;99.90;;;;;;6644435;88;20896;-75
2021/12/29 17:17:16;;;;;;;4.22;1.42;;;9.50;99.90;;;;;;6625282;88;20189;-75
2021/12/29 17:27:16;;;;;;;4.12;1.85;;;9.50;99.90;;;;;;6623475;88;20196;-75
2021/12/29 17:37:17;;;;;;;3.53;2.20;;;9.60;99.90;;;;;;6625277;88;20383;-75
2021/12/29 17:47:18;;;;;;;6.65;2.92;;;9.70;99.90;;;;;;6626541;88;20231;-75
2021/12/29 17:57:19;;;;;;;6.25;2.65;;;9.70;99.90;;;;;;6626583;88;20226;-76
2021/12/29 18:07:19;;;;;;;3.70;2.03;;;9.70;99.90;;;;;;6628584;88;21085;-76
2021/12/29 18:17:21;;;;;;;5.28;2.35;;;9.80;99.90;;;;;;6632015;88;20323;-75
2021/12/29 18:27:22;;;;;;;4.05;2.40;;;10.00;99.90;;;;;;6625032;88;20224;-76
2021/12/29 18:37:28;;;;;;;7.70;2.60;;;10.00;99.90;;;;;;6631722;88;20188;-76
2021/12/29 18:47:30;;;;;;;4.00;2.78;;;10.20;99.90;;;;;;6637082;88;20537;-75
2021/12/29 18:57:31;;;;;;;3.75;2.50;;;10.10;99.90;;;;;;6653197;88;20345;-77
2021/12/29 19:07:31;;;;;;;6.45;2.83;;;10.20;99.90;;;;;;6636877;88;20254;-76
2021/12/29 19:17:36;;;;;;;6.80;3.78;;;10.10;99.90;;;;;;6652205;88;20190;-76
2021/12/29 19:27:41;;;;;;;7.73;3.70;;;10.10;99.90;;;;;;6629384;88;20221;-76
2021/12/29 19:37:42;;;;;;;4.70;3.05;;;10.00;99.90;;;;;;6639786;88;20211;-76
2021/12/29 19:47:43;;;;;;;5.32;2.78;;;10.20;99.90;;;;;;6647521;88;20239;-75
2021/12/29 19:57:44;;;;;;;5.50;3.22;;;10.20;99.90;;;;;;6659554;88;20628;-76
2021/12/29 20:07:58;;;;;;;5.32;2.97;;;10.40;99.90;;;;;;6646276;88;20224;-76
2021/12/29 20:17:59;;;;;;;4.22;2.03;;;10.50;99.90;;;;;;6624836;88;20173;-75
2021/12/29 20:28:00;;;;;;;2.62;0.60;;;11.10;99.90;;;;;;6654290;88;22368;-76
2021/12/29 20:38:01;;;;;;;1.73;1.00;;;11.80;99.90;;;;;;6633909;88;20204;-76
2021/12/29 20:48:01;;;;;;;1.58;0.80;;;12.10;99.90;;;;;;6643644;88;20207;-75
2021/12/29 20:58:02;;;;;;;2.07;1.03;;;12.20;99.90;;;;;;6632087;88;20232;-76
2021/12/29 21:08:03;;;;;;;2.12;1.10;;;12.30;99.90;;;;;;6641470;88;20553;-75
2021/12/29 21:18:04;;;;;;;4.03;1.30;;;12.20;99.90;;;;;;6648268;88;20216;-75
2021/12/29 21:28:05;;;;;;;6.10;1.27;;;12.30;99.90;;;;;;6645738;88;20229;-77
2021/12/29 21:38:06;;;;;;;2.95;1.40;;;12.20;99.90;;;;;;6647332;88;20207;-76
2021/12/29 21:48:09;;;;;;;6.25;1.60;;;12.40;99.90;;;;;;6653885;88;20317;-75
2021/12/29 21:58:10;;;;;;;7.40;2.45;;;12.50;99.90;;;;;;6640611;88;20207;-75
2021/12/29 22:08:12;;;;;;;8.93;1.80;;;12.40;99.90;;;;;;6661446;88;20634;-75
2021/12/29 22:18:13;;;;;;;7.55;1.75;;;12.40;99.90;;;;;;6698452;88;20647;-75
2021/12/29 22:28:18;;;;;;;8.13;1.70;;;12.60;99.90;;;;;;6698393;88;20333;-75
2021/12/29 22:38:23;;;;;;;7.10;1.85;;;12.60;99.90;;;;;;6695781;88;21036;-75
2021/12/29 22:48:24;;;;;;;8.93;1.77;;;12.50;99.90;;;;;;6695814;88;20182;-76
2021/12/29 22:58:25;;;;;;;12.85;2.15;;;12.70;99.90;;;;;;6698281;88;20197;-76
2021/12/29 23:08:28;;;;;;;11.50;2.15;;;12.50;99.90;;;;;;6682328;88;20210;-76
2021/12/29 23:18:30;;;;;;;14.60;2.40;;;12.50;99.90;;;;;;6647774;88;20737;-75
2021/12/29 23:28:33;;;;;;;10.48;2.22;;;12.50;99.90;;;;;;6655466;88;20199;-76
2021/12/29 23:38:35;;;;;;;15.27;2.37;;;12.50;99.90;;;;;;6635909;88;20235;-74
2021/12/29 23:48:37;;;;;;;12.05;2.53;;;12.50;99.90;;;;;;6634765;88;20226;-74
2021/12/29 23:58:38;;;;;;;16.60;2.37;;;12.40;99.90;;;;;;6644075;88;20708;-75
